Time;durP1;ratioP1;P1;durP2;ratioP2;P2;SDS_P1;SDS_P2;PMS_P1;PMS_P2;Temp;Humidity;BMP_temperature;BMP_pressure;BME280_temperature;BME280_humidity;BME280_pressure;Samples;Min_cycle;Max_cycle;Signal;HPM_P1;HPM_P2
2022/04/16 00:01:06;;;;;;;15.80;12.20;;;;;;;6.29;72.06;101700.66;5077296;28;20508;-82
2022/04/16 00:03:34;;;;;;;14.48;11.60;;;;;;;6.26;72.20;101703.13;5076481;28;20052;-82
2022/04/16 00:06:01;;;;;;;14.18;11.45;;;;;;;6.24;72.76;101699.78;5077021;28;20075;-81
2022/04/16 00:08:30;;;;;;;14.98;13.10;;;;;;;6.15;72.34;101696.56;5070673;28;20045;-82
2022/04/16 00:11:02;;;;;;;15.15;12.15;;;;;;;6.16;72.46;101697.44;5077346;28;20052;-80
2022/04/16 00:13:33;;;;;;;15.07;11.55;;;;;;;6.14;72.44;101696.84;5076177;28;20063;-80
2022/04/16 00:16:00;;;;;;;13.68;11.32;;;;;;;6.12;72.09;101691.56;5063833;28;20052;-80
2022/04/16 00:18:28;;;;;;;15.85;12.07;;;;;;;6.10;71.97;101697.34;5074975;28;20055;-81
2022/04/16 00:20:57;;;;;;;16.67;13.13;;;;;;;6.09;72.07;101692.91;5075258;28;20396;-80
2022/04/16 00:23:26;;;;;;;15.45;12.52;;;;;;;6.06;72.18;101693.41;5075868;28;20052;-81
2022/04/16 00:25:56;;;;;;;16.40;13.30;;;;;;;6.05;72.41;101697.28;5075031;28;20049;-80
2022/04/16 00:28:24;;;;;;;17.42;13.13;;;;;;;6.02;72.62;101695.00;5076774;28;20053;-81
2022/04/16 00:30:52;;;;;;;15.52;12.00;;;;;;;5.99;72.60;101689.16;5076634;28;20056;-81
2022/04/16 00:33:19;;;;;;;15.10;12.50;;;;;;;6.03;72.59;101687.56;5075249;28;20079;-81
2022/04/16 00:35:47;;;;;;;15.18;12.88;;;;;;;6.00;72.86;101694.44;5076638;28;20040;-81
2022/04/16 00:38:15;;;;;;;15.80;12.73;;;;;;;5.99;72.76;101687.25;5076342;28;20493;-81
2022/04/16 00:40:43;;;;;;;16.40;13.40;;;;;;;5.98;72.45;101687.47;5075436;28;20061;-82
2022/04/16 00:43:22;;;;;;;17.60;14.50;;;;;;;5.97;72.82;101689.41;5075782;28;20049;-81
2022/04/16 00:45:50;;;;;;;15.85;13.38;;;;;;;5.95;72.99;101693.53;5075644;28;20049;-79
2022/04/16 00:48:21;;;;;;;15.68;13.15;;;;;;;5.93;73.23;101695.69;5074384;28;20075;-82
2022/04/16 00:50:56;;;;;;;17.15;13.95;;;;;;;5.87;72.97;101690.06;5081636;28;20520;-81
2022/04/16 00:53:27;;;;;;;15.40;12.75;;;;;;;5.85;72.59;101691.41;5067786;28;20044;-81
2022/04/16 00:55:55;;;;;;;16.17;12.70;;;;;;;5.82;72.72;101697.47;5075259;28;20056;-81
2022/04/16 00:58:24;;;;;;;16.33;12.95;;;;;;;5.81;73.16;101693.00;5076218;28;20048;-81
2022/04/16 01:00:54;;;;;;;15.43;12.90;;;;;;;5.78;72.68;101686.06;5077327;28;20063;-81
2022/04/16 01:03:23;;;;;;;17.38;12.98;;;;;;;5.77;72.24;101700.94;5077082;28;20417;-82
2022/04/16 01:05:51;;;;;;;17.38;13.75;;;;;;;5.74;72.70;101695.13;5077349;28;20048;-81
2022/04/16 01:08:22;;;;;;;16.50;12.98;;;;;;;5.70;72.53;101697.53;5077695;28;20060;-82
2022/04/16 01:10:52;;;;;;;14.40;11.65;;;;;;;5.70;72.11;101692.84;5063387;28;20053;-81
2022/04/16 01:13:22;;;;;;;15.63;12.35;;;;;;;5.67;72.26;101696.13;5055503;28;20067;-81
2022/04/16 01:15:56;;;;;;;17.27;13.90;;;;;;;5.61;72.16;101691.59;5049704;28;20064;-82
2022/04/16 01:18:24;;;;;;;15.02;11.48;;;;;;;5.56;72.25;101698.94;5051033;28;20045;-82
2022/04/16 01:20:51;;;;;;;17.05;12.10;;;;;;;5.57;71.77;101704.25;5055542;28;20052;-82
2022/04/16 01:23:20;;;;;;;15.80;12.02;;;;;;;5.55;72.06;101700.88;5056977;28;20048;-82
2022/04/16 01:25:47;;;;;;;17.90;13.30;;;;;;;5.51;71.75;101694.19;5056943;28;20056;-81
2022/04/16 01:28:18;;;;;;;16.35;12.75;;;;;;;5.45;72.04;101693.25;5054910;28;20052;-82
2022/04/16 01:30:46;;;;;;;16.33;12.75;;;;;;;5.42;72.39;101703.97;5060961;28;20045;-82
2022/04/16 01:33:15;;;;;;;16.25;13.32;;;;;;;5.39;72.02;101704.47;5060850;28;20052;-82
2022/04/16 01:35:42;;;;;;;14.45;12.23;;;;;;;5.33;72.19;101698.00;5062682;28;20052;-82
2022/04/16 01:38:10;;;;;;;15.70;12.85;;;;;;;5.33;72.42;101691.66;5062605;28;20053;-82
2022/04/16 01:40:39;;;;;;;16.95;14.18;;;;;;;5.24;72.69;101697.56;5060296;28;20049;-82
2022/04/16 01:43:06;;;;;;;16.63;13.48;;;;;;;5.25;72.10;101699.25;5061666;28;20076;-82
2022/04/16 01:45:34;;;;;;;15.85;12.82;;;;;;;5.23;72.27;101695.91;5061523;28;20044;-80
2022/04/16 01:48:02;;;;;;;14.63;12.93;;;;;;;5.21;72.29;101708.31;5059500;28;20060;-82
2022/04/16 01:50:30;;;;;;;16.20;12.82;;;;;;;5.19;71.91;101703.03;5057843;28;20418;-81
2022/04/16 01:52:58;;;;;;;16.95;13.32;;;;;;;5.18;72.15;101714.31;5052178;28;20052;-82
2022/04/16 01:55:25;;;;;;;15.77;12.85;;;;;;;5.14;71.96;101713.94;5061483;28;20440;-82
2022/04/16 01:57:54;;;;;;;16.15;12.35;;;;;;;5.12;71.99;101718.06;5060649;28;20069;-82
2022/04/16 02:00:23;;;;;;;16.80;13.10;;;;;;;5.08;71.77;101724.09;5060148;28;20059;-82
2022/04/16 02:02:50;;;;;;;15.40;12.18;;;;;;;5.06;71.89;101719.88;5060418;28;20057;-82
2022/04/16 02:05:18;;;;;;;16.92;13.23;;;;;;;5.03;71.93;101718.44;5059859;28;20059;-82
2022/04/16 02:07:45;;;;;;;16.55;13.15;;;;;;;5.04;71.82;101724.81;5060289;28;20078;-82
2022/04/16 02:10:16;;;;;;;18.35;13.90;;;;;;;5.01;71.90;101708.75;5066535;28;20416;-81
2022/04/16 02:12:44;;;;;;;18.27;14.38;;;;;;;4.98;71.99;101709.25;5076627;28;20049;-80
2022/04/16 02:15:13;;;;;;;15.43;12.65;;;;;;;4.95;72.23;101712.50;5073306;28;20515;-80
2022/04/16 02:17:41;;;;;;;17.45;13.80;;;;;;;4.91;72.12;101719.59;5076814;28;20059;-79
2022/04/16 02:20:13;;;;;;;18.02;14.43;;;;;;;4.88;72.16;101713.47;5076326;28;20055;-80
2022/04/16 02:22:42;;;;;;;17.02;13.10;;;;;;;4.83;72.12;101720.81;5077366;28;20056;-80
2022/04/16 02:25:11;;;;;;;18.05;14.05;;;;;;;4.85;72.57;101732.44;5077060;28;20067;-80
2022/04/16 02:27:38;;;;;;;17.08;12.85;;;;;;;4.93;72.97;101729.28;5076982;28;20049;-80
2022/04/16 02:30:09;;;;;;;16.30;12.85;;;;;;;5.01;73.06;101719.78;5077847;28;20053;-81
2022/04/16 02:32:39;;;;;;;17.45;14.13;;;;;;;5.12;73.54;101729.09;5079166;28;20045;-80
2022/04/16 02:35:08;;;;;;;15.70;12.93;;;;;;;5.23;73.29;101731.81;5059398;28;20056;-81
2022/04/16 02:37:35;;;;;;;16.08;12.85;;;;;;;5.36;73.25;101732.59;5071783;28;20052;-81
2022/04/16 02:40:04;;;;;;;16.63;13.43;;;;;;;5.44;72.94;101730.28;5078980;28;20049;-81
2022/04/16 02:42:34;;;;;;;22.40;15.83;;;;;;;5.46;72.42;101739.16;5079733;28;20060;-81
2022/04/16 02:47:48;;;;;;;15.90;13.38;;;;;;;5.56;72.38;101738.47;5081706;28;20059;-82
2022/04/16 02:50:16;;;;;;;16.13;13.95;;;;;;;5.59;72.43;101749.03;5078944;28;20056;-80
2022/04/16 02:52:46;;;;;;;15.40;13.30;;;;;;;5.64;72.74;101740.00;5080201;28;20465;-81
2022/04/16 02:55:15;;;;;;;15.70;13.15;;;;;;;5.72;72.57;101747.88;5079462;28;20497;-82
2022/04/16 02:57:43;;;;;;;16.13;13.27;;;;;;;5.79;72.17;101743.00;5079398;28;20052;-81
2022/04/16 03:00:13;;;;;;;20.10;15.52;;;;;;;5.87;72.42;101747.28;5079060;28;20057;-80
2022/04/16 03:02:40;;;;;;;18.20;14.73;;;;;;;5.88;72.35;101749.00;5078165;28;20053;-81
2022/04/16 03:05:10;;;;;;;17.05;13.00;;;;;;;5.95;72.37;101748.84;5078743;28;20059;-81
2022/04/16 03:07:41;;;;;;;16.63;12.82;;;;;;;6.00;72.41;101748.91;5080339;28;20048;-82
2022/04/16 03:10:10;;;;;;;18.20;13.60;;;;;;;6.04;72.37;101750.91;5079757;28;20075;-82
2022/04/16 03:12:44;;;;;;;17.52;13.10;;;;;;;6.15;72.33;101753.84;5079484;28;20064;-80
2022/04/16 03:17:58;;;;;;;16.73;12.68;;;;;;;6.26;71.88;101758.47;5079324;28;20072;-81
2022/04/16 03:20:29;;;;;;;18.15;12.70;;;;;;;6.30;71.88;101759.63;5079309;28;20394;-82
2022/04/16 03:22:58;;;;;;;15.60;12.85;;;;;;;6.36;72.07;101758.59;5079106;28;20045;-82
2022/04/16 03:25:28;;;;;;;19.60;13.23;;;;;;;6.41;72.50;101766.97;5078839;28;20055;-83
2022/04/16 03:27:55;;;;;;;;;;;;;;;6.48;72.44;101764.03;5079522;28;20059;-82
2022/04/16 03:30:25;;;;;;;19.70;13.52;;;;;;;6.58;71.48;101764.16;5078325;28;20292;-82
2022/04/16 03:32:53;;;;;;;16.08;14.07;;;;;;;6.68;71.78;101763.47;5076908;28;20400;-82
2022/04/16 03:35:22;;;;;;;18.02;15.32;;;;;;;6.78;71.13;101762.75;5078023;28;20509;-82
2022/04/16 03:37:51;;;;;;;17.77;13.95;;;;;;;6.90;71.54;101764.28;5078744;28;20048;-82
2022/04/16 03:40:23;;;;;;;17.02;13.27;;;;;;;6.96;70.94;101758.84;5078968;28;20386;-81
2022/04/16 03:42:52;;;;;;;18.63;15.05;;;;;;;6.99;71.41;101756.41;5078736;28;20056;-82
2022/04/16 03:45:22;;;;;;;17.17;14.23;;;;;;;7.02;69.97;101744.78;5078992;28;20056;-81
2022/04/16 03:47:52;;;;;;;19.83;14.93;;;;;;;7.02;70.20;101746.72;5078623;28;20065;-82
2022/04/16 03:50:20;;;;;;;14.60;12.73;;;;;;;6.94;70.08;101756.31;5078583;28;20063;-80
2022/04/16 03:52:49;;;;;;;17.77;13.73;;;;;;;6.93;70.40;101753.78;5077175;28;20041;-80
2022/04/16 04:00:47;;;;;;;13.75;11.90;;;;;;;6.73;69.25;101763.53;5082626;28;20060;-80
2022/04/16 04:03:16;;;;;;;15.73;12.70;;;;;;;6.65;69.36;101766.75;5077695;28;20040;-81
2022/04/16 04:05:45;;;;;;;13.93;11.35;;;;;;;6.58;69.36;101766.09;5078172;28;20461;-80
2022/04/16 04:08:13;;;;;;;15.75;13.18;;;;;;;6.45;69.94;101761.78;5078608;28;20065;-82
2022/04/16 04:10:42;;;;;;;17.48;12.35;;;;;;;6.45;69.75;101767.31;5077578;28;20060;-80
2022/04/16 04:13:09;;;;;;;15.38;12.13;;;;;;;6.47;69.90;101777.03;5077851;28;20389;-81
2022/04/16 04:15:37;;;;;;;19.05;13.35;;;;;;;6.47;70.46;101777.03;5076894;28;20060;-80
2022/04/16 04:18:05;;;;;;;14.18;12.50;;;;;;;6.55;70.88;101788.75;5073617;28;20045;-84
2022/04/16 04:20:32;;;;;;;14.70;12.57;;;;;;;6.62;70.97;101795.78;5076991;28;20429;-81
2022/04/16 04:22:59;;;;;;;14.43;12.30;;;;;;;6.68;70.87;101792.00;5078170;28;20059;-80
2022/04/16 04:25:27;;;;;;;14.05;11.73;;;;;;;6.73;70.49;101788.44;5077733;28;20071;-81
2022/04/16 04:27:55;;;;;;;16.08;12.82;;;;;;;6.80;70.89;101791.84;5077973;28;20064;-81
2022/04/16 04:30:23;;;;;;;19.90;14.32;;;;;;;6.85;70.04;101799.41;5077842;28;20055;-81
2022/04/16 04:32:51;;;;;;;17.70;14.40;;;;;;;6.97;70.60;101799.28;5076545;28;20052;-80
2022/04/16 04:35:18;;;;;;;16.75;13.05;;;;;;;7.05;70.61;101799.66;5076735;28;20061;-81
2022/04/16 04:37:47;;;;;;;17.63;15.00;;;;;;;7.14;70.30;101802.84;5077589;28;20048;-81
2022/04/16 04:40:17;;;;;;;17.80;14.65;;;;;;;7.20;70.03;101807.34;5076924;28;20416;-81
2022/04/16 04:42:44;;;;;;;17.67;15.60;;;;;;;7.26;70.63;101809.06;5076885;28;20048;-82
2022/04/16 04:45:15;;;;;;;17.15;14.85;;;;;;;7.33;69.94;101803.34;5076888;28;20048;-82
2022/04/16 04:47:42;;;;;;;17.90;15.20;;;;;;;7.40;69.84;101811.44;5076661;28;20480;-80
2022/04/16 04:50:11;;;;;;;18.70;14.32;;;;;;;7.37;69.99;101821.13;5076644;28;20048;-80
2022/04/16 04:52:40;;;;;;;19.08;15.15;;;;;;;7.45;70.25;101826.19;5080539;28;20048;-81
2022/04/16 04:55:10;;;;;;;16.60;14.68;;;;;;;7.50;70.06;101828.19;5096703;28;20055;-80
2022/04/16 04:57:38;;;;;;;19.15;15.32;;;;;;;7.58;70.58;101824.09;5086283;28;20060;-82
2022/04/16 05:00:06;;;;;;;17.08;14.65;;;;;;;7.66;70.22;101821.69;5077288;28;20417;-80
2022/04/16 05:02:42;;;;;;;16.10;13.38;;;;;;;7.74;70.20;101828.72;5077959;28;20520;-82
2022/04/16 05:05:11;;;;;;;16.38;13.27;;;;;;;7.75;68.96;101840.63;5080841;28;20063;-81
2022/04/16 05:07:39;;;;;;;15.95;12.93;;;;;;;7.69;67.69;101840.59;5082364;28;20048;-81
2022/04/16 05:10:07;;;;;;;14.63;12.50;;;;;;;7.69;68.05;101839.75;5081743;28;20053;-81
2022/04/16 05:12:35;;;;;;;16.20;12.60;;;;;;;7.63;67.59;101840.81;5080918;28;20044;-81
2022/04/16 05:15:04;;;;;;;15.40;11.98;;;;;;;7.61;67.57;101846.59;5065381;28;20067;-80
2022/04/16 05:17:31;;;;;;;14.35;12.85;;;;;;;7.56;67.44;101854.00;5077139;28;20048;-81
2022/04/16 05:20:03;;;;;;;16.77;12.05;;;;;;;7.48;68.40;101858.13;5081484;28;20056;-80
2022/04/16 05:22:31;;;;;;;16.77;12.73;;;;;;;7.41;68.07;101857.47;5080530;28;20048;-81
2022/04/16 05:24:59;;;;;;;15.88;12.80;;;;;;;7.41;68.37;101863.00;5080970;28;20497;-81
2022/04/16 05:27:26;;;;;;;14.25;12.50;;;;;;;7.41;69.22;101857.47;5081659;28;20044;-82
2022/04/16 05:30:11;;;;;;;18.02;14.60;;;;;;;7.31;69.20;101861.78;5081925;28;20063;-82
2022/04/16 05:32:40;;;;;;;17.55;14.63;;;;;;;7.35;69.10;101866.81;5081536;28;20071;-82
2022/04/16 05:35:10;;;;;;;18.35;14.88;;;;;;;7.42;68.61;101864.69;5081364;28;21564;-82
2022/04/16 05:37:38;;;;;;;15.80;13.63;;;;;;;7.48;68.66;101870.03;5082470;28;20052;-81
2022/04/16 05:40:07;;;;;;;15.82;13.77;;;;;;;7.56;69.21;101868.75;5081553;28;20149;-81
2022/04/16 05:42:40;;;;;;;16.70;14.07;;;;;;;7.64;69.12;101871.06;5080666;28;20048;-82
2022/04/16 05:45:09;;;;;;;16.33;13.48;;;;;;;7.72;68.40;101867.78;5085665;28;20053;-81
2022/04/16 05:47:36;;;;;;;15.15;13.00;;;;;;;7.78;68.34;101873.41;5080468;28;20055;-82
2022/04/16 05:50:04;;;;;;;19.05;15.50;;;;;;;7.85;68.34;101874.88;5080811;28;20048;-82
2022/04/16 05:52:33;;;;;;;19.30;14.57;;;;;;;7.93;67.86;101873.56;5081590;28;20049;-82
2022/04/16 05:55:01;;;;;;;15.93;14.23;;;;;;;7.97;68.76;101880.25;5079642;28;20531;-81
2022/04/16 05:57:29;;;;;;;18.05;14.68;;;;;;;8.02;67.99;101880.31;5080004;28;20485;-81
2022/04/16 05:59:56;;;;;;;17.70;14.40;;;;;;;8.11;68.17;101881.50;5080522;28;20048;-81
2022/04/16 06:02:24;;;;;;;22.48;16.20;;;;;;;8.21;68.14;101886.31;5079721;28;20040;-81
2022/04/16 06:04:51;;;;;;;18.85;15.73;;;;;;;8.27;67.73;101889.97;5079469;28;20045;-80
2022/04/16 06:07:19;;;;;;;15.88;13.90;;;;;;;8.36;67.74;101880.06;5080901;28;20056;-82
2022/04/16 06:09:47;;;;;;;17.65;15.43;;;;;;;8.45;68.11;101886.00;5080561;28;20488;-82
2022/04/16 06:12:15;;;;;;;16.98;14.70;;;;;;;8.53;68.10;101891.06;5080421;28;20405;-82
2022/04/16 06:14:42;;;;;;;16.60;13.93;;;;;;;8.62;67.95;101889.47;5080336;28;20044;-82
2022/04/16 06:17:09;;;;;;;20.23;14.35;;;;;;;8.72;67.92;101888.69;5081408;28;20049;-82
2022/04/16 06:19:37;;;;;;;18.42;14.23;;;;;;;8.76;67.54;101883.44;5082168;28;20059;-82
2022/04/16 06:22:05;;;;;;;15.65;13.82;;;;;;;8.82;67.58;101893.47;5082633;28;20055;-82
2022/04/16 06:24:32;;;;;;;16.77;14.00;;;;;;;8.88;68.09;101890.47;5082018;28;20075;-81
2022/04/16 06:27:04;;;;;;;18.80;14.88;;;;;;;8.96;67.98;101893.84;5080824;28;20056;-81
2022/04/16 06:29:31;;;;;;;17.90;14.10;;;;;;;9.03;68.27;101894.44;5080258;28;20048;-81
2022/04/16 06:31:59;;;;;;;16.55;13.90;;;;;;;9.13;68.32;101884.25;5074928;28;20052;-80
2022/04/16 06:34:27;;;;;;;20.52;13.70;;;;;;;9.29;68.66;101887.09;5077430;28;20405;-80
2022/04/16 06:36:55;;;;;;;17.10;14.18;;;;;;;9.43;68.33;101892.97;5070244;28;20057;-81
2022/04/16 06:39:22;;;;;;;18.10;13.88;;;;;;;9.59;67.84;101894.69;5061371;28;20053;-81
2022/04/16 06:41:50;;;;;;;17.88;14.27;;;;;;;9.71;68.15;101894.47;5064108;28;20068;-81
2022/04/16 06:44:19;;;;;;;17.80;14.88;;;;;;;9.87;68.11;101901.75;5059652;28;20056;-80
2022/04/16 06:46:46;;;;;;;17.23;14.70;;;;;;;10.05;68.37;101902.34;5074377;28;20107;-82
2022/04/16 06:49:13;;;;;;;19.35;15.07;;;;;;;10.29;68.15;101895.19;5078195;28;20479;-82
2022/04/16 06:51:40;;;;;;;18.75;14.45;;;;;;;10.59;67.53;101896.28;5076175;28;20055;-82
2022/04/16 06:54:08;;;;;;;19.13;15.23;;;;;;;10.85;66.89;101896.25;5078866;28;20416;-82
2022/04/16 06:56:36;;;;;;;16.25;12.55;;;;;;;11.11;65.67;101897.03;5074277;28;20041;-81
2022/04/16 06:59:03;;;;;;;17.40;13.57;;;;;;;11.31;64.83;101882.19;5073362;28;20398;-80
2022/04/16 07:01:32;;;;;;;18.92;14.43;;;;;;;11.49;63.90;101894.69;5073681;28;20044;-81
2022/04/16 07:03:59;;;;;;;14.70;12.50;;;;;;;11.57;63.64;101892.13;5073489;28;20052;-80
2022/04/16 07:06:27;;;;;;;16.27;12.95;;;;;;;11.77;62.84;101884.75;5078841;28;20049;-81
2022/04/16 07:08:54;;;;;;;16.85;13.85;;;;;;;11.99;61.95;101895.56;5079286;28;20055;-82
2022/04/16 07:11:22;;;;;;;15.80;12.80;;;;;;;12.13;61.68;101890.97;5075717;28;20064;-81
2022/04/16 07:13:49;;;;;;;14.00;12.15;;;;;;;12.28;61.09;101890.03;5072203;28;20055;-82
2022/04/16 07:16:16;;;;;;;15.20;12.25;;;;;;;12.17;60.97;101894.03;5073411;28;20040;-82
2022/04/16 07:18:45;;;;;;;13.80;11.43;;;;;;;12.41;60.20;101884.91;5076357;28;20045;-81
2022/04/16 07:21:13;;;;;;;17.05;14.30;;;;;;;12.47;59.31;101884.56;5074126;28;20045;-81
2022/04/16 07:23:40;;;;;;;15.48;12.73;;;;;;;12.63;59.18;101884.44;5077128;28;20485;-80
2022/04/16 07:26:07;;;;;;;14.60;12.55;;;;;;;12.74;58.42;101892.41;5075641;28;20416;-80
2022/04/16 07:28:35;;;;;;;16.10;11.85;;;;;;;13.14;58.26;101887.53;5075780;28;20067;-80
2022/04/16 07:31:02;;;;;;;14.05;11.70;;;;;;;13.75;56.57;101888.78;5075723;28;20504;-80
2022/04/16 07:33:30;;;;;;;15.82;12.10;;;;;;;13.96;55.13;101894.06;5075461;28;20058;-81
2022/04/16 07:35:59;;;;;;;12.18;10.85;;;;;;;14.47;55.23;101890.47;5074652;28;20417;-81
2022/04/16 07:38:27;;;;;;;12.75;11.13;;;;;;;16.22;51.99;101885.81;5079923;28;20051;-81
2022/04/16 07:41:08;;;;;;;12.88;10.48;;;;;;;17.40;48.07;101879.06;5076844;28;20047;-82
2022/04/16 07:43:35;;;;;;;11.52;10.30;;;;;;;18.88;45.29;101881.13;5074910;28;20044;-81
2022/04/16 07:46:06;;;;;;;11.73;10.52;;;;;;;19.57;42.20;101872.34;5075548;28;20048;-81
2022/04/16 07:48:34;;;;;;;11.60;9.98;;;;;;;20.68;39.66;101870.97;5069857;28;20153;-80
2022/04/16 07:51:04;;;;;;;10.80;9.70;;;;;;;20.84;38.46;101876.78;5073165;28;20064;-80
2022/04/16 07:53:32;;;;;;;13.30;11.45;;;;;;;20.68;38.00;101873.81;5071124;28;20049;-82
2022/04/16 07:56:02;;;;;;;18.75;12.27;;;;;;;21.81;37.13;101874.34;5073690;28;20489;-81
2022/04/16 07:58:30;;;;;;;12.25;10.00;;;;;;;22.79;35.10;101878.88;5074844;28;20512;-83
2022/04/16 08:00:57;;;;;;;12.05;10.30;;;;;;;23.94;32.47;101878.09;5075598;28;20063;-84
2022/04/16 08:03:27;;;;;;;10.43;9.35;;;;;;;25.33;30.48;101882.91;5076303;28;20060;-84
2022/04/16 08:05:54;;;;;;;9.40;8.50;;;;;;;25.58;29.20;101891.06;5077534;28;20055;-82
2022/04/16 08:08:25;;;;;;;10.68;9.68;;;;;;;26.03;28.11;101878.69;5057759;28;20044;-83
2022/04/16 08:10:53;;;;;;;11.45;10.25;;;;;;;25.84;27.70;101879.63;5074276;28;20059;-82
2022/04/16 08:13:21;;;;;;;9.77;8.77;;;;;;;26.37;27.19;101877.91;5075056;28;20057;-83
2022/04/16 08:15:49;;;;;;;10.48;9.38;;;;;;;26.84;26.62;101882.97;5062532;28;20063;-82
2022/04/16 08:18:17;;;;;;;10.23;9.15;;;;;;;26.63;26.28;101883.56;5074695;28;20087;-81
2022/04/16 08:20:45;;;;;;;8.70;7.90;;;;;;;26.22;26.87;101880.56;5072715;28;20051;-83
2022/04/16 08:23:13;;;;;;;8.57;7.78;;;;;;;27.05;26.47;101885.22;5073903;28;20060;-81
2022/04/16 08:25:47;;;;;;;8.15;7.35;;;;;;;28.14;25.34;101888.53;5070513;28;20465;-80
2022/04/16 08:28:14;;;;;;;9.18;8.18;;;;;;;28.86;23.74;101885.91;5077160;28;20512;-82
2022/04/16 08:30:44;;;;;;;9.00;8.10;;;;;;;30.07;22.46;101877.66;5076395;28;20048;-80
2022/04/16 08:33:16;;;;;;;8.27;7.57;;;;;;;31.06;21.79;101878.41;5068348;28;20049;-85
2022/04/16 08:35:44;;;;;;;8.10;7.30;;;;;;;30.71;20.73;101885.22;5074317;28;20048;-84
2022/04/16 08:38:12;;;;;;;7.70;7.00;;;;;;;31.39;20.35;101883.91;5077250;28;20052;-83
2022/04/16 08:40:42;;;;;;;8.43;7.63;;;;;;;31.45;20.34;101888.00;5077194;28;20057;-81
2022/04/16 08:43:12;;;;;;;6.88;6.28;;;;;;;32.26;19.51;101899.09;5078340;28;20048;-83
2022/04/16 08:45:40;;;;;;;6.45;5.85;;;;;;;32.54;18.27;101895.84;5076869;28;20049;-85
2022/04/16 08:48:07;;;;;;;7.45;6.75;;;;;;;31.87;18.99;101892.50;5074815;28;20075;-84
2022/04/16 08:50:35;;;;;;;6.82;6.18;;;;;;;32.51;18.64;101898.78;5073744;28;20060;-84
2022/04/16 08:53:02;;;;;;;7.78;7.07;;;;;;;33.20;18.16;101895.72;5065296;28;20048;-83
2022/04/16 08:55:52;;;;;;;7.13;6.43;;;;;;;33.60;17.73;101885.16;5071078;28;20059;-85
2022/04/16 08:58:25;;;;;;;7.80;6.55;;;;;;;33.99;16.75;101889.34;5076871;28;20059;-82
2022/04/16 09:00:52;;;;;;;7.03;6.32;;;;;;;34.60;16.34;101888.06;5075320;28;20060;-84
2022/04/16 09:03:19;;;;;;;6.43;5.83;;;;;;;35.38;16.44;101890.38;5075423;28;20040;-84
2022/04/16 09:05:47;;;;;;;5.93;5.43;;;;;;;35.10;15.74;101892.72;5074019;28;20048;-84
2022/04/16 09:08:15;;;;;;;6.22;5.63;;;;;;;34.91;15.90;101890.72;5071440;28;20048;-85
2022/04/16 09:10:44;;;;;;;6.75;6.03;;;;;;;35.07;16.27;101896.53;5076504;28;20045;-84
2022/04/16 09:13:13;;;;;;;6.80;6.20;;;;;;;34.55;15.72;101891.50;5076225;28;20059;-85
2022/04/16 09:15:40;;;;;;;6.53;5.93;;;;;;;33.96;16.40;101891.06;5074793;28;20374;-85
2022/04/16 09:18:09;;;;;;;7.13;6.43;;;;;;;33.60;16.72;101892.97;5078785;28;20052;-84
2022/04/16 09:20:39;;;;;;;;;;;;;;;33.36;17.53;101902.44;5078080;28;20062;-83
2022/04/16 09:23:18;;;;;;;6.05;5.45;;;;;;;33.07;17.00;101905.00;5078793;28;19927;-83
2022/04/16 09:25:46;;;;;;;5.88;5.30;;;;;;;33.32;17.08;101907.47;5073052;28;20053;-84
2022/04/16 09:28:17;;;;;;;6.13;5.53;;;;;;;33.57;17.18;101904.13;5066603;28;20485;-84
2022/04/16 09:30:52;;;;;;;5.75;5.25;;;;;;;33.71;16.53;101902.28;5074208;28;20049;-84
2022/04/16 09:33:23;;;;;;;4.97;4.57;;;;;;;34.65;16.40;101896.28;5057590;28;20053;-84
2022/04/16 09:35:54;;;;;;;5.47;4.97;;;;;;;34.61;16.56;101897.56;5074476;28;20065;-84
2022/04/16 09:38:30;;;;;;;5.40;4.90;;;;;;;34.45;15.37;101901.25;5073357;28;20040;-84
2022/04/16 09:41:05;;;;;;;4.55;4.15;;;;;;;34.47;15.81;101904.50;5072977;28;20063;-83
2022/04/16 09:43:36;;;;;;;5.35;4.85;;;;;;;34.12;15.54;101890.38;5069834;28;20565;-86
2022/04/16 09:46:11;;;;;;;5.57;5.03;;;;;;;34.39;16.36;101900.13;5075196;28;20405;-82
2022/04/16 09:48:39;;;;;;;5.28;4.78;;;;;;;35.26;15.91;101888.19;5072265;28;20052;-85
2022/04/16 09:51:07;;;;;;;4.63;4.22;;;;;;;35.71;15.05;101888.28;5080031;28;20056;-83
2022/04/16 09:53:38;;;;;;;4.30;3.90;;;;;;;36.37;14.60;101885.16;5079933;28;20488;-83
2022/04/16 09:56:11;;;;;;;5.00;4.50;;;;;;;36.40;14.11;101884.25;5078668;28;20048;-84
2022/04/16 09:58:50;;;;;;;5.18;4.32;;;;;;;36.31;14.38;101881.22;5080049;28;20067;-84
2022/04/16 10:01:22;;;;;;;4.85;4.10;;;;;;;36.31;13.80;101879.13;5079352;28;20056;-84
2022/04/16 10:03:52;;;;;;;5.03;4.15;;;;;;;36.60;13.58;101881.13;5080244;28;20052;-84
2022/04/16 10:06:21;;;;;;;4.65;4.22;;;;;;;35.75;13.89;101891.88;5074173;28;20053;-83
2022/04/16 10:08:49;;;;;;;3.95;3.53;;;;;;;34.59;14.30;101886.47;5078012;28;20139;-84
2022/04/16 10:11:21;;;;;;;4.10;3.80;;;;;;;34.56;14.92;101893.13;5079106;28;20040;-83
2022/04/16 10:14:00;;;;;;;4.75;4.35;;;;;;;34.26;15.33;101886.34;5078585;28;20051;-83
2022/04/16 10:16:37;;;;;;;4.30;3.90;;;;;;;34.74;14.32;101884.88;5077938;28;20060;-84
2022/04/16 10:19:17;;;;;;;6.70;4.20;;;;;;;34.10;15.27;101878.41;5073808;28;20055;-84
2022/04/16 10:21:51;;;;;;;4.53;4.13;;;;;;;34.79;14.50;101882.72;5077154;28;20048;-83
2022/04/16 10:24:25;;;;;;;3.72;3.33;;;;;;;35.73;14.07;101882.84;5074697;28;20067;-83
2022/04/16 10:26:52;;;;;;;4.15;3.70;;;;;;;36.40;13.49;101883.44;5070138;28;20053;-83
2022/04/16 10:29:21;;;;;;;4.73;3.80;;;;;;;36.86;12.87;101881.19;5075633;28;20147;-83
2022/04/16 10:31:51;;;;;;;4.07;3.67;;;;;;;37.60;12.68;101882.84;5072846;28;20106;-83
2022/04/16 10:34:29;;;;;;;4.15;3.80;;;;;;;37.79;12.57;101880.91;5078616;28;20052;-83
2022/04/16 10:36:56;;;;;;;4.70;3.97;;;;;;;38.18;11.83;101881.59;5080377;28;20049;-83
2022/04/16 10:39:28;;;;;;;4.47;4.07;;;;;;;38.78;11.74;101875.44;5078158;28;20052;-84
2022/04/16 10:41:57;;;;;;;3.70;3.40;;;;;;;39.06;12.35;101872.69;5076718;28;20064;-83
2022/04/16 10:44:29;;;;;;;4.05;3.70;;;;;;;39.20;11.22;101879.19;5077173;28;20048;-83
2022/04/16 10:46:58;;;;;;;4.18;3.78;;;;;;;39.13;11.26;101875.28;5078167;28;20048;-83
2022/04/16 10:49:28;;;;;;;3.75;3.38;;;;;;;39.51;10.71;101877.00;5084088;28;20048;-83
2022/04/16 10:51:59;;;;;;;3.53;3.22;;;;;;;39.69;11.21;101863.72;5079444;28;20155;-84
2022/04/16 10:54:31;;;;;;;4.05;3.72;;;;;;;39.89;10.75;101869.91;5077018;28;20067;-84
2022/04/16 10:57:00;;;;;;;4.05;3.65;;;;;;;39.95;10.50;101870.88;5078341;28;20492;-82
2022/04/16 10:59:39;;;;;;;3.95;3.55;;;;;;;39.15;10.48;101866.88;5078897;28;20424;-82
2022/04/16 11:02:19;;;;;;;3.53;3.13;;;;;;;38.69;10.20;101869.59;5094445;28;20056;-82
2022/04/16 11:05:00;;;;;;;4.15;3.78;;;;;;;38.72;10.85;101862.81;5098208;28;20500;-83
2022/04/16 11:07:28;;;;;;;5.97;2.80;;;;;;;38.97;10.67;101864.69;5076367;28;20052;-83
2022/04/16 11:09:57;;;;;;;3.22;2.80;;;;;;;39.24;11.19;101863.16;5077054;28;20051;-83
2022/04/16 11:12:25;;;;;;;4.30;3.45;;;;;;;39.29;9.92;101865.44;5078045;28;20417;-83
2022/04/16 11:14:55;;;;;;;3.85;2.70;;;;;;;39.38;9.77;101867.56;5078233;28;20456;-84
2022/04/16 11:17:33;;;;;;;3.42;2.85;;;;;;;39.37;9.89;101865.94;5078862;28;20106;-86
2022/04/16 11:20:07;;;;;;;3.42;2.72;;;;;;;38.91;9.75;101857.88;5078646;28;20462;-85
2022/04/16 11:22:40;;;;;;;2.63;2.33;;;;;;;38.73;9.79;101863.63;5077936;28;20055;-83
2022/04/16 11:25:11;;;;;;;3.90;2.50;;;;;;;38.68;9.57;101872.97;5064392;28;20063;-82
2022/04/16 11:36:25;;;;;;;3.45;2.10;;;;;;;37.70;9.72;101858.41;5078269;28;20046;-83
2022/04/16 11:39:04;;;;;;;2.10;1.90;;;;;;;37.85;9.42;101864.50;5060665;28;20053;-84
2022/04/16 11:41:52;;;;;;;2.63;1.80;;;;;;;38.05;9.33;101860.47;5061999;28;20044;-85
2022/04/16 11:44:34;;;;;;;3.03;2.40;;;;;;;38.05;9.16;101860.47;5078092;28;20057;-83
2022/04/16 11:47:12;;;;;;;2.60;2.40;;;;;;;37.84;8.97;101862.03;5076197;28;20079;-84
2022/04/16 11:49:42;;;;;;;2.35;1.95;;;;;;;37.43;9.79;101867.66;5060060;28;20060;-84